Time;durP1;ratioP1;P1;durP2;ratioP2;P2;SDS_P1;SDS_P2;PMS_P1;PMS_P2;Temp;Humidity;BMP_temperature;BMP_pressure;BME280_temperature;BME280_humidity;BME280_pressure;Samples;Min_cycle;Max_cycle;Signal;HPM_P1;HPM_P2
2021/12/08 00:01:35;;;;;;;2.28;1.40;;;;;;;;;;5092313;28;20498;-82
2021/12/08 00:04:22;;;;;;;2.38;1.48;;;;;;;;;;5089125;28;20036;-82
2021/12/08 00:07:09;;;;;;;1.77;1.38;;;;;;;;;;5083625;28;20040;-82
2021/12/08 00:10:13;;;;;;;2.22;1.60;;;;;;;;;;5092007;28;20044;-82
2021/12/08 00:13:06;;;;;;;3.05;1.45;;;;;;;;;;5091858;28;20047;-84
2021/12/08 00:15:54;;;;;;;2.33;1.52;;;;;;;;;;5093237;28;20024;-84
2021/12/08 00:18:46;;;;;;;2.20;1.23;;;;;;;;;;5093724;28;20024;-84
2021/12/08 00:21:33;;;;;;;2.85;1.60;;;;;;;;;;5089725;28;20032;-82
2021/12/08 00:24:20;;;;;;;2.17;1.40;;;;;;;;;;5087261;28;20036;-83
2021/12/08 00:27:07;;;;;;;3.22;1.35;;;;;;;;;;5090534;28;20044;-84
2021/12/08 00:29:53;;;;;;;2.80;1.40;;;;;;;;;;5074647;28;20030;-83
2021/12/08 00:32:40;;;;;;;2.45;1.50;;;;;;;;;;5088835;28;20507;-83
2021/12/08 00:35:27;;;;;;;2.95;1.58;;;;;;;;;;5097252;28;20040;-86
2021/12/08 00:38:18;;;;;;;2.35;1.60;;;;;;;;;;5097259;28;20042;-81
2021/12/08 00:41:05;;;;;;;3.33;1.45;;;;;;;;;;5090809;28;20028;-80
2021/12/08 00:43:52;;;;;;;3.30;1.58;;;;;;;;;;5099640;28;20039;-80
2021/12/08 00:46:39;;;;;;;2.45;1.60;;;;;;;;;;5091641;28;20040;-82
2021/12/08 00:49:25;;;;;;;4.53;1.65;;;;;;;;;;5090828;28;20040;-81
2021/12/08 00:52:13;;;;;;;3.65;1.50;;;;;;;;;;5102529;28;20025;-81
2021/12/08 00:55:00;;;;;;;2.83;1.42;;;;;;;;;;5081220;28;20032;-80
2021/12/08 00:57:47;;;;;;;2.83;1.63;;;;;;;;;;5098853;28;20483;-81
2021/12/08 01:00:37;;;;;;;2.17;1.20;;;;;;;;;;5102866;28;20039;-81
2021/12/08 01:03:23;;;;;;;2.67;1.42;;;;;;;;;;5086244;28;20020;-80
2021/12/08 01:06:10;;;;;;;2.28;1.42;;;;;;;;;;5096966;28;20523;-82
2021/12/08 01:08:57;;;;;;;2.75;1.50;;;;;;;;;;5092978;28;20028;-81
2021/12/08 01:11:43;;;;;;;2.47;1.60;;;;;;;;;;5066482;28;20387;-80
2021/12/08 01:14:31;;;;;;;2.63;1.63;;;;;;;;;;5076268;28;20047;-80
2021/12/08 01:17:17;;;;;;;2.90;1.92;;;;;;;;;;5082910;28;20034;-80
2021/12/08 01:20:04;;;;;;;2.97;1.60;;;;;;;;;;5090252;28;20035;-81
2021/12/08 01:22:51;;;;;;;3.05;1.60;;;;;;;;;;5093104;28;20029;-81
2021/12/08 01:25:38;;;;;;;2.45;1.50;;;;;;;;;;5084724;28;20040;-82
2021/12/08 01:28:25;;;;;;;2.10;1.30;;;;;;;;;;5093039;28;20040;-81
2021/12/08 01:31:12;;;;;;;3.22;1.60;;;;;;;;;;5092586;28;20523;-81
2021/12/08 01:33:59;;;;;;;2.55;1.88;;;;;;;;;;5059959;28;20493;-81
2021/12/08 01:36:45;;;;;;;2.83;1.38;;;;;;;;;;5090760;28;20036;-82
2021/12/08 01:39:32;;;;;;;2.83;1.50;;;;;;;;;;5099684;28;20020;-81
2021/12/08 01:42:24;;;;;;;3.20;1.95;;;;;;;;;;5092342;28;20036;-81
2021/12/08 01:48:20;;;;;;;2.80;1.70;;;;;;;;;;5099978;28;20098;-81
2021/12/08 01:51:11;;;;;;;2.20;1.50;;;;;;;;;;5112435;28;20020;-82
2021/12/08 01:54:01;;;;;;;;;;;;;;;;;;5114187;28;20036;-82
2021/12/08 01:56:48;;;;;;;3.13;1.55;;;;;;;;;;5099564;28;19915;-82
2021/12/08 01:59:34;;;;;;;2.42;1.48;;;;;;;;;;5095934;28;20036;-81
2021/12/08 02:02:21;;;;;;;3.15;1.90;;;;;;;;;;5110611;28;20023;-80
2021/12/08 02:05:08;;;;;;;3.42;1.88;;;;;;;;;;5105640;28;20035;-81
2021/12/08 02:07:55;;;;;;;2.63;1.80;;;;;;;;;;5105746;28;20036;-81
2021/12/08 02:10:42;;;;;;;2.67;1.77;;;;;;;;;;5091823;28;20024;-79
2021/12/08 02:13:31;;;;;;;3.40;1.70;;;;;;;;;;5092476;28;20017;-81
2021/12/08 02:16:18;;;;;;;3.55;1.70;;;;;;;;;;5096730;28;20030;-82
2021/12/08 02:19:06;;;;;;;3.22;1.88;;;;;;;;;;5092250;28;20043;-82
2021/12/08 02:21:52;;;;;;;4.15;2.17;;;;;;;;;;5103754;28;20020;-83
2021/12/08 02:24:39;;;;;;;2.60;1.80;;;;;;;;;;5104804;28;20028;-83
2021/12/08 02:27:26;;;;;;;3.25;1.75;;;;;;;;;;5106629;28;20050;-83
2021/12/08 02:30:27;;;;;;;2.45;1.65;;;;;;;;;;5109310;28;20038;-82
2021/12/08 02:48:41;;;;;;;3.38;1.88;;;;;;;;;;5098110;28;20028;-82
2021/12/08 02:51:29;;;;;;;3.05;1.92;;;;;;;;;;5096748;28;20035;-82
2021/12/08 02:54:16;;;;;;;2.88;1.92;;;;;;;;;;5089414;28;20058;-79
2021/12/08 02:57:03;;;;;;;2.90;1.83;;;;;;;;;;5076312;28;20456;-81
2021/12/08 02:59:49;;;;;;;3.22;1.73;;;;;;;;;;5072872;28;20033;-81
2021/12/08 03:02:36;;;;;;;3.22;2.03;;;;;;;;;;5086708;28;20503;-81
2021/12/08 03:05:23;;;;;;;3.10;1.90;;;;;;;;;;5066665;28;20145;-81
2021/12/08 03:08:10;;;;;;;3.97;2.00;;;;;;;;;;5077748;28;20024;-81
2021/12/08 03:10:57;;;;;;;3.58;2.10;;;;;;;;;;5064863;28;20029;-80
2021/12/08 03:13:57;;;;;;;3.42;1.98;;;;;;;;;;5088400;28;20030;-81
2021/12/08 03:16:45;;;;;;;4.40;2.30;;;;;;;;;;5090811;28;20058;-83
2021/12/08 03:19:32;;;;;;;3.38;1.95;;;;;;;;;;5093637;28;20455;-81
2021/12/08 03:22:19;;;;;;;2.95;1.95;;;;;;;;;;5077983;28;20024;-82
2021/12/08 03:25:08;;;;;;;3.45;2.17;;;;;;;;;;5079299;28;20052;-81
2021/12/08 03:28:06;;;;;;;3.85;1.92;;;;;;;;;;5092645;28;20025;-82
2021/12/08 03:31:31;;;;;;;2.85;1.85;;;;;;;;;;5081426;28;20048;-82
2021/12/08 03:34:06;;;;;;;3.13;1.95;;;;;;;;;;5086962;28;20082;-82
2021/12/08 03:36:53;;;;;;;3.38;2.00;;;;;;;;;;5088406;28;20040;-82
2021/12/08 03:39:41;;;;;;;3.88;2.33;;;;;;;;;;5067782;28;20377;-82
2021/12/08 03:42:31;;;;;;;3.63;2.10;;;;;;;;;;5091120;28;20074;-82
2021/12/08 03:45:19;;;;;;;3.55;2.22;;;;;;;;;;5081792;28;20036;-82
2021/12/08 03:48:08;;;;;;;3.42;2.30;;;;;;;;;;5088516;28;20032;-82
2021/12/08 03:50:56;;;;;;;4.38;2.17;;;;;;;;;;5081777;28;20495;-82
2021/12/08 03:53:44;;;;;;;3.58;2.15;;;;;;;;;;5091942;28;20066;-82
2021/12/08 03:56:30;;;;;;;3.67;2.13;;;;;;;;;;5092674;28;20050;-81
2021/12/08 03:59:17;;;;;;;4.18;2.45;;;;;;;;;;5085298;28;20040;-80
2021/12/08 04:02:04;;;;;;;3.95;2.35;;;;;;;;;;5082834;28;20035;-79
2021/12/08 04:04:51;;;;;;;4.63;2.22;;;;;;;;;;5091705;28;20404;-80
2021/12/08 04:07:44;;;;;;;3.38;2.05;;;;;;;;;;5091191;28;20041;-81
2021/12/08 04:10:31;;;;;;;3.40;2.38;;;;;;;;;;5082245;28;20057;-81
2021/12/08 04:13:20;;;;;;;4.07;2.30;;;;;;;;;;5089794;28;20024;-82
2021/12/08 04:16:08;;;;;;;4.78;2.45;;;;;;;;;;5089152;28;20028;-79
2021/12/08 04:18:57;;;;;;;3.80;2.15;;;;;;;;;;5092273;28;20024;-79
2021/12/08 04:21:44;;;;;;;3.28;2.05;;;;;;;;;;5089822;28;20506;-79
2021/12/08 04:24:31;;;;;;;5.40;2.47;;;;;;;;;;5093373;28;20042;-80
2021/12/08 04:27:25;;;;;;;4.68;2.38;;;;;;;;;;5091449;28;20047;-79
2021/12/08 04:30:14;;;;;;;4.32;2.53;;;;;;;;;;5081345;28;20399;-80
2021/12/08 04:33:01;;;;;;;3.60;2.33;;;;;;;;;;5086149;28;20051;-79
2021/12/08 04:35:49;;;;;;;4.85;2.83;;;;;;;;;;5087879;28;20489;-79
2021/12/08 04:38:43;;;;;;;3.92;1.98;;;;;;;;;;5086822;28;20390;-80
2021/12/08 04:41:37;;;;;;;4.75;2.30;;;;;;;;;;5089068;28;20032;-80
2021/12/08 04:44:37;;;;;;;4.25;2.50;;;;;;;;;;5085387;28;20043;-81
2021/12/08 04:47:35;;;;;;;5.25;2.55;;;;;;;;;;5074256;28;20050;-79
2021/12/08 05:05:48;;;;;;;4.10;2.40;;;;;;;;;;5081746;28;20521;-80
2021/12/08 05:08:40;;;;;;;5.10;2.72;;;;;;;;;;5087005;28;20499;-81
2021/12/08 05:11:32;;;;;;;5.28;3.00;;;;;;;;;;5090403;28;20042;-80
2021/12/08 05:14:19;;;;;;;;;;;;;;;;;;5091856;28;20042;-80
2021/12/08 05:17:11;;;;;;;4.20;2.60;;;;;;;;;;5090457;28;19922;-80
2021/12/08 05:19:59;;;;;;;4.03;2.25;;;;;;;;;;5091210;28;20024;-80
2021/12/08 05:22:57;;;;;;;5.65;3.13;;;;;;;;;;5077324;28;20028;-80
2021/12/08 05:25:44;;;;;;;7.22;3.28;;;;;;;;;;5091251;28;20047;-79
2021/12/08 05:28:31;;;;;;;6.05;3.10;;;;;;;;;;5090032;28;20407;-81
2021/12/08 05:31:20;;;;;;;5.47;3.08;;;;;;;;;;5083128;28;20059;-81
2021/12/08 05:34:06;;;;;;;5.88;3.15;;;;;;;;;;5087781;28;20056;-80
2021/12/08 05:36:53;;;;;;;5.13;3.35;;;;;;;;;;5087407;28;20024;-80
2021/12/08 05:39:41;;;;;;;6.18;3.30;;;;;;;;;;5087191;28;20036;-80
2021/12/08 05:42:29;;;;;;;6.38;3.38;;;;;;;;;;5089636;28;20051;-80
2021/12/08 05:45:18;;;;;;;5.15;2.70;;;;;;;;;;5086621;28;20032;-80
2021/12/08 05:48:05;;;;;;;5.75;3.42;;;;;;;;;;5072096;28;20035;-80
2021/12/08 05:50:53;;;;;;;5.57;3.42;;;;;;;;;;5088085;28;20031;-80
2021/12/08 05:53:43;;;;;;;5.03;3.03;;;;;;;;;;5075329;28;20028;-80
2021/12/08 05:56:29;;;;;;;5.30;3.38;;;;;;;;;;5088477;28;20028;-80
2021/12/08 05:59:17;;;;;;;9.23;4.03;;;;;;;;;;5082387;28;20032;-81
2021/12/08 06:02:09;;;;;;;6.70;3.90;;;;;;;;;;5068959;28;20062;-80
2021/12/08 06:04:57;;;;;;;5.15;3.30;;;;;;;;;;5069220;28;20039;-79
2021/12/08 06:07:44;;;;;;;5.95;3.22;;;;;;;;;;5086824;28;20043;-78
2021/12/08 06:10:34;;;;;;;6.95;3.45;;;;;;;;;;5088666;28;20509;-79
2021/12/08 06:13:20;;;;;;;5.28;3.40;;;;;;;;;;5087383;28;20054;-81
2021/12/08 06:16:08;;;;;;;7.60;3.60;;;;;;;;;;5088010;28;20046;-79
2021/12/08 06:18:55;;;;;;;7.47;4.25;;;;;;;;;;5087460;28;20035;-79
2021/12/08 06:21:42;;;;;;;6.45;3.38;;;;;;;;;;5067999;28;20044;-80
2021/12/08 06:24:29;;;;;;;8.70;3.88;;;;;;;;;;5087983;28;20042;-81
2021/12/08 06:27:16;;;;;;;7.53;3.80;;;;;;;;;;5084301;28;20525;-80
2021/12/08 06:30:04;;;;;;;7.05;3.88;;;;;;;;;;5083830;28;20044;-82
2021/12/08 06:32:51;;;;;;;5.78;3.33;;;;;;;;;;5071678;28;20043;-80
2021/12/08 06:35:41;;;;;;;6.85;3.70;;;;;;;;;;5089624;28;20030;-80
2021/12/08 06:38:28;;;;;;;6.10;3.53;;;;;;;;;;5085863;28;20035;-79
2021/12/08 06:41:21;;;;;;;6.47;3.63;;;;;;;;;;5088348;28;20034;-80
2021/12/08 06:44:10;;;;;;;7.53;3.83;;;;;;;;;;5074262;28;20032;-80
2021/12/08 06:46:57;;;;;;;5.80;3.58;;;;;;;;;;5088958;28;20149;-80
2021/12/08 06:49:48;;;;;;;7.00;3.30;;;;;;;;;;5085265;28;20089;-79
2021/12/08 06:52:38;;;;;;;10.53;3.97;;;;;;;;;;5084287;28;20042;-79
2021/12/08 06:55:27;;;;;;;6.13;3.85;;;;;;;;;;5093431;28;20033;-79
2021/12/08 06:58:18;;;;;;;7.45;4.50;;;;;;;;;;5095506;28;20036;-80
2021/12/08 07:01:20;;;;;;;6.00;3.47;;;;;;;;;;5092969;28;20059;-81
2021/12/08 07:07:08;;;;;;;7.32;3.88;;;;;;;;;;5085330;28;20052;-79
2021/12/08 07:09:58;;;;;;;10.15;4.05;;;;;;;;;;5090159;28;20026;-84
2021/12/08 07:12:47;;;;;;;6.38;4.20;;;;;;;;;;5075630;28;20029;-81
2021/12/08 07:15:45;;;;;;;5.85;3.75;;;;;;;;;;5088994;28;20036;-80
2021/12/08 07:18:53;;;;;;;7.22;3.90;;;;;;;;;;5091571;28;20380;-81
2021/12/08 07:21:42;;;;;;;7.53;3.70;;;;;;;;;;5069452;28;20032;-81
2021/12/08 07:24:31;;;;;;;6.65;4.25;;;;;;;;;;5086907;28;20030;-81
2021/12/08 07:27:20;;;;;;;7.15;3.90;;;;;;;;;;5087754;28;20046;-81
2021/12/08 07:30:17;;;;;;;8.70;4.20;;;;;;;;;;5073464;28;20345;-80
2021/12/08 07:33:04;;;;;;;7.28;4.32;;;;;;;;;;5093016;28;20052;-81
2021/12/08 07:35:53;;;;;;;7.85;4.35;;;;;;;;;;5079316;28;20042;-81
2021/12/08 07:38:40;;;;;;;7.25;4.00;;;;;;;;;;5091597;28;20063;-81
2021/12/08 07:41:30;;;;;;;8.20;4.25;;;;;;;;;;5086662;28;20043;-80
2021/12/08 07:44:17;;;;;;;7.25;4.30;;;;;;;;;;5074405;28;20028;-80
2021/12/08 07:47:07;;;;;;;7.30;4.40;;;;;;;;;;5087567;28;20044;-80
2021/12/08 07:50:01;;;;;;;8.57;4.60;;;;;;;;;;5075543;28;20484;-80
2021/12/08 07:52:51;;;;;;;7.43;3.83;;;;;;;;;;5091386;28;20040;-80
2021/12/08 07:55:41;;;;;;;7.05;3.90;;;;;;;;;;5090855;28;20047;-81
2021/12/08 07:58:28;;;;;;;6.68;4.00;;;;;;;;;;5086348;28;20035;-82
2021/12/08 08:01:17;;;;;;;6.68;3.88;;;;;;;;;;5077172;28;20035;-82
2021/12/08 08:04:05;;;;;;;8.50;4.38;;;;;;;;;;5077221;28;20399;-82
2021/12/08 08:06:54;;;;;;;6.47;3.78;;;;;;;;;;5087453;28;20416;-82
2021/12/08 08:09:44;;;;;;;7.90;4.28;;;;;;;;;;5087291;28;20028;-82
2021/12/08 08:12:32;;;;;;;6.45;3.80;;;;;;;;;;5082366;28;20017;-82
2021/12/08 08:15:22;;;;;;;8.48;4.22;;;;;;;;;;5077935;28;20032;-82
2021/12/08 08:18:11;;;;;;;7.50;4.60;;;;;;;;;;5088569;28;20028;-82
2021/12/08 08:21:00;;;;;;;6.72;4.22;;;;;;;;;;5089385;28;20652;-82
2021/12/08 08:23:58;;;;;;;7.22;4.25;;;;;;;;;;5087086;28;20040;-83
2021/12/08 08:26:45;;;;;;;7.28;3.70;;;;;;;;;;5079586;28;20063;-81
2021/12/08 08:29:32;;;;;;;8.40;4.20;;;;;;;;;;5089845;28;20028;-82
2021/12/08 08:32:24;;;;;;;6.68;4.18;;;;;;;;;;5084741;28;20055;-82
2021/12/08 08:35:17;;;;;;;7.32;3.88;;;;;;;;;;5092555;28;20023;-82
2021/12/08 08:38:05;;;;;;;7.10;4.25;;;;;;;;;;5083461;28;20407;-82
2021/12/08 08:40:54;;;;;;;8.25;4.13;;;;;;;;;;5085857;28;20029;-81
2021/12/08 08:43:42;;;;;;;7.25;4.07;;;;;;;;;;5082784;28;20034;-82
2021/12/08 08:46:32;;;;;;;6.60;4.18;;;;;;;;;;5076143;28;20048;-82
2021/12/08 08:49:21;;;;;;;6.07;3.77;;;;;;;;;;5088404;28;20043;-82
2021/12/08 08:52:11;;;;;;;6.13;3.47;;;;;;;;;;5090551;28;20059;-81
2021/12/08 08:55:00;;;;;;;6.95;4.32;;;;;;;;;;5086633;28;20039;-82
2021/12/08 08:57:47;;;;;;;7.57;4.00;;;;;;;;;;5088151;28;20374;-82
2021/12/08 09:00:43;;;;;;;7.00;3.83;;;;;;;;;;5087675;28;20036;-83
2021/12/08 09:03:34;;;;;;;6.55;4.05;;;;;;;;;;5088307;28;20028;-83
2021/12/08 09:06:25;;;;;;;5.85;3.95;;;;;;;;;;5088796;28;20044;-81
2021/12/08 09:09:14;;;;;;;6.75;4.07;;;;;;;;;;5089980;28;20028;-82
2021/12/08 09:12:04;;;;;;;6.45;3.78;;;;;;;;;;5082887;28;20032;-82
2021/12/08 09:15:08;;;;;;;7.72;4.38;;;;;;;;;;5090056;28;20024;-82
2021/12/08 09:17:56;;;;;;;9.52;5.03;;;;;;;;;;5088329;28;20038;-84
2021/12/08 09:20:54;;;;;;;7.00;3.97;;;;;;;;;;5084538;28;20609;-82
2021/12/08 09:23:46;;;;;;;7.35;4.13;;;;;;;;;;5086067;28;20024;-82
2021/12/08 09:26:35;;;;;;;6.80;4.25;;;;;;;;;;5088616;28;20042;-80
2021/12/08 09:29:24;;;;;;;6.68;3.58;;;;;;;;;;5090276;28;20032;-81
2021/12/08 09:32:16;;;;;;;7.10;3.67;;;;;;;;;;5087480;28;20407;-81
2021/12/08 09:35:10;;;;;;;7.03;4.10;;;;;;;;;;5088164;28;20039;-81
2021/12/08 09:38:02;;;;;;;7.00;4.43;;;;;;;;;;5087875;28;20065;-82
2021/12/08 09:40:57;;;;;;;6.53;3.75;;;;;;;;;;5079987;28;20039;-81
2021/12/08 09:43:47;;;;;;;7.25;4.50;;;;;;;;;;5086963;28;20020;-80
2021/12/08 09:46:36;;;;;;;6.55;3.90;;;;;;;;;;5089182;28;20056;-80
2021/12/08 09:49:24;;;;;;;6.68;4.07;;;;;;;;;;5087944;28;20028;-80
2021/12/08 09:52:11;;;;;;;8.25;3.90;;;;;;;;;;5073504;28;20043;-81
2021/12/08 09:55:00;;;;;;;7.00;4.00;;;;;;;;;;5074772;28;20042;-80
2021/12/08 09:57:48;;;;;;;8.60;4.28;;;;;;;;;;5086511;28;20755;-81
2021/12/08 10:00:37;;;;;;;7.13;3.85;;;;;;;;;;5082786;28;20024;-79
2021/12/08 10:03:24;;;;;;;7.25;3.83;;;;;;;;;;5090154;28;20035;-80
2021/12/08 10:06:12;;;;;;;6.20;3.60;;;;;;;;;;5090997;28;20040;-80
2021/12/08 10:08:59;;;;;;;8.40;4.85;;;;;;;;;;5081442;28;20031;-80
2021/12/08 10:11:46;;;;;;;6.20;4.03;;;;;;;;;;5088543;28;20040;-80
2021/12/08 10:14:34;;;;;;;8.80;4.85;;;;;;;;;;5088318;28;20482;-81
2021/12/08 10:17:21;;;;;;;6.78;3.75;;;;;;;;;;5089869;28;20028;-81
2021/12/08 10:20:31;;;;;;;7.60;4.30;;;;;;;;;;5061641;28;20047;-80
2021/12/08 10:23:34;;;;;;;6.55;3.58;;;;;;;;;;5079081;28;20036;-80
2021/12/08 10:26:24;;;;;;;6.43;3.88;;;;;;;;;;5072525;28;20048;-80
2021/12/08 10:29:11;;;;;;;6.78;3.42;;;;;;;;;;5077469;28;20044;-80
2021/12/08 10:32:00;;;;;;;6.82;4.30;;;;;;;;;;5091935;28;20055;-80
2021/12/08 10:34:57;;;;;;;6.93;3.63;;;;;;;;;;5079368;28;20054;-80
2021/12/08 10:37:44;;;;;;;5.78;3.90;;;;;;;;;;5092047;28;20032;-79
2021/12/08 10:40:31;;;;;;;6.97;3.80;;;;;;;;;;5092316;28;20036;-80
2021/12/08 10:43:18;;;;;;;6.97;3.83;;;;;;;;;;5085790;28;20028;-80
2021/12/08 10:46:07;;;;;;;6.55;3.85;;;;;;;;;;5093214;28;20050;-79
2021/12/08 10:49:09;;;;;;;5.53;3.35;;;;;;;;;;5093039;28;20039;-79
2021/12/08 10:55:04;;;;;;;4.82;2.88;;;;;;;;;;5085299;28;20055;-79
2021/12/08 10:57:55;;;;;;;6.38;3.80;;;;;;;;;;5085736;28;20036;-80
2021/12/08 11:00:42;;;;;;;8.43;3.53;;;;;;;;;;5090431;28;20028;-80
2021/12/08 11:03:32;;;;;;;6.75;3.97;;;;;;;;;;5098619;28;20036;-81
2021/12/08 11:06:20;;;;;;;6.85;4.00;;;;;;;;;;5097396;28;20058;-80
2021/12/08 11:09:14;;;;;;;6.93;4.00;;;;;;;;;;5100801;28;20036;-81
2021/12/08 11:12:04;;;;;;;5.18;3.15;;;;;;;;;;5081664;28;20024;-81
2021/12/08 11:14:51;;;;;;;7.10;3.90;;;;;;;;;;5098452;28;20032;-79
2021/12/08 11:17:39;;;;;;;6.28;3.65;;;;;;;;;;5099338;28;20028;-82
2021/12/08 11:20:31;;;;;;;6.15;3.35;;;;;;;;;;5086316;28;20146;-80
2021/12/08 11:23:38;;;;;;;7.15;3.90;;;;;;;;;;5097841;28;20032;-80
2021/12/08 11:26:37;;;;;;;7.93;3.92;;;;;;;;;;5096956;28;20048;-79
2021/12/08 11:29:25;;;;;;;5.40;3.55;;;;;;;;;;5096604;28;20024;-81
2021/12/08 11:32:15;;;;;;;7.43;3.55;;;;;;;;;;5086251;28;20060;-81
2021/12/08 11:35:02;;;;;;;7.05;4.50;;;;;;;;;;5098948;28;20036;-81
2021/12/08 11:37:59;;;;;;;6.82;3.92;;;;;;;;;;5097255;28;20024;-81
2021/12/08 11:40:45;;;;;;;6.88;3.80;;;;;;;;;;5093985;28;20499;-80
2021/12/08 11:43:32;;;;;;;5.97;3.85;;;;;;;;;;5091327;28;20030;-81
2021/12/08 11:46:19;;;;;;;5.20;3.33;;;;;;;;;;5086596;28;20503;-80
2021/12/08 11:49:10;;;;;;;6.40;3.70;;;;;;;;;;5089909;28;20047;-80
2021/12/08 11:51:59;;;;;;;6.73;3.83;;;;;;;;;;5094079;28;20032;-80
2021/12/08 11:54:59;;;;;;;6.07;3.90;;;;;;;;;;5086681;28;20028;-81
2021/12/08 11:57:48;;;;;;;6.18;3.78;;;;;;;;;;5092323;28;20043;-80
2021/12/08 12:00:41;;;;;;;7.05;3.63;;;;;;;;;;5082841;28;20032;-80
2021/12/08 12:03:27;;;;;;;6.72;4.15;;;;;;;;;;5078700;28;20043;-79
2021/12/08 12:06:14;;;;;;;6.80;3.92;;;;;;;;;;5090914;28;20020;-81
2021/12/08 12:09:01;;;;;;;6.68;3.60;;;;;;;;;;5093589;28;20047;-81
2021/12/08 12:11:52;;;;;;;5.47;3.70;;;;;;;;;;5088714;28;20032;-80
2021/12/08 12:14:39;;;;;;;6.00;3.25;;;;;;;;;;5077343;28;21829;-80
2021/12/08 12:17:26;;;;;;;6.43;3.47;;;;;;;;;;5082452;28;20025;-80
2021/12/08 12:20:22;;;;;;;7.22;3.85;;;;;;;;;;5092513;28;20028;-80
2021/12/08 12:23:27;;;;;;;6.10;3.88;;;;;;;;;;5092526;28;20036;-80
2021/12/08 12:26:26;;;;;;;5.65;3.20;;;;;;;;;;5074362;28;20480;-80
2021/12/08 12:29:12;;;;;;;5.55;3.58;;;;;;;;;;5082779;28;20492;-80
2021/12/08 12:32:09;;;;;;;5.53;3.65;;;;;;;;;;5093807;28;20518;-79
2021/12/08 12:35:16;;;;;;;5.82;3.40;;;;;;;;;;5093924;28;20035;-79
2021/12/08 12:38:04;;;;;;;5.78;3.20;;;;;;;;;;5078303;28;20428;-80
2021/12/08 12:40:51;;;;;;;6.00;3.28;;;;;;;;;;5092604;28;20036;-80
2021/12/08 12:43:39;;;;;;;5.05;3.30;;;;;;;;;;5080786;28;20038;-80
2021/12/08 12:46:26;;;;;;;7.47;3.85;;;;;;;;;;5087235;28;20078;-81
2021/12/08 12:49:23;;;;;;;7.63;3.35;;;;;;;;;;5086149;28;20035;-81
2021/12/08 12:52:11;;;;;;;5.50;3.40;;;;;;;;;;5080207;28;20044;-81
2021/12/08 12:55:06;;;;;;;6.43;3.75;;;;;;;;;;5099079;28;20035;-81
2021/12/08 12:58:02;;;;;;;5.95;3.55;;;;;;;;;;5096838;28;20487;-80
2021/12/08 13:01:05;;;;;;;5.53;3.08;;;;;;;;;;5101815;28;20036;-80
2021/12/08 13:03:53;;;;;;;6.07;3.20;;;;;;;;;;5107532;28;20050;-80
2021/12/08 13:06:42;;;;;;;6.80;3.70;;;;;;;;;;5091978;28;20036;-81
2021/12/08 13:09:38;;;;;;;7.88;4.13;;;;;;;;;;5105748;28;20036;-80
2021/12/08 13:12:34;;;;;;;7.07;3.72;;;;;;;;;;5113142;28;20024;-80
2021/12/08 13:15:26;;;;;;;5.40;3.17;;;;;;;;;;5100917;28;20020;-80
2021/12/08 13:18:17;;;;;;;6.55;3.65;;;;;;;;;;5105784;28;20036;-81
2021/12/08 13:21:06;;;;;;;6.15;3.60;;;;;;;;;;5092651;28;20038;-81
2021/12/08 13:23:52;;;;;;;6.25;3.33;;;;;;;;;;5083327;28;20024;-81
2021/12/08 13:26:48;;;;;;;5.38;3.55;;;;;;;;;;5098716;28;20042;-80
2021/12/08 13:29:37;;;;;;;6.65;4.03;;;;;;;;;;5088754;28;20032;-80
2021/12/08 13:32:38;;;;;;;4.30;2.83;;;;;;;;;;5088215;28;20044;-80
2021/12/08 13:35:26;;;;;;;;;;;;;;;;;;5063904;28;20051;-80
2021/12/08 13:38:12;;;;;;;5.22;2.95;;;;;;;;;;5097115;28;19904;-79
2021/12/08 13:40:59;;;;;;;4.85;3.03;;;;;;;;;;5095236;28;20040;-81
2021/12/08 13:43:49;;;;;;;5.18;3.42;;;;;;;;;;5086635;28;20028;-81
2021/12/08 13:46:44;;;;;;;6.03;3.35;;;;;;;;;;5089563;28;20040;-81
2021/12/08 13:49:34;;;;;;;5.78;3.40;;;;;;;;;;5090370;28;20291;-80
2021/12/08 13:52:30;;;;;;;5.07;3.22;;;;;;;;;;5090529;28;20032;-80
2021/12/08 13:55:20;;;;;;;6.45;3.58;;;;;;;;;;5086407;28;20050;-80
2021/12/08 13:58:12;;;;;;;5.07;3.35;;;;;;;;;;5087456;28;20033;-80
2021/12/08 14:00:59;;;;;;;4.88;3.25;;;;;;;;;;5082399;28;20057;-80
2021/12/08 14:03:48;;;;;;;6.13;3.47;;;;;;;;;;5090547;28;20402;-81
2021/12/08 14:06:35;;;;;;;6.35;3.70;;;;;;;;;;5088416;28;20030;-80
2021/12/08 14:09:22;;;;;;;5.68;3.20;;;;;;;;;;5079152;28;20032;-80
2021/12/08 14:12:09;;;;;;;7.10;3.40;;;;;;;;;;5079014;28;20032;-81
2021/12/08 14:14:56;;;;;;;7.22;3.78;;;;;;;;;;5087290;28;20046;-82
2021/12/08 14:17:43;;;;;;;6.13;3.05;;;;;;;;;;5067555;28;20020;-80
2021/12/08 14:20:35;;;;;;;6.53;3.50;;;;;;;;;;5079214;28;20028;-81
2021/12/08 14:23:24;;;;;;;5.70;2.80;;;;;;;;;;5088461;28;20395;-81
2021/12/08 14:26:15;;;;;;;5.78;3.53;;;;;;;;;;5079374;28;20036;-80
2021/12/08 14:29:19;;;;;;;5.65;3.15;;;;;;;;;;5089938;28;20518;-80
2021/12/08 14:32:06;;;;;;;4.10;2.90;;;;;;;;;;5083873;28;20060;-80
2021/12/08 14:34:53;;;;;;;11.60;4.65;;;;;;;;;;5082671;28;20028;-80
2021/12/08 14:37:39;;;;;;;4.88;2.78;;;;;;;;;;5069761;28;20411;-80
2021/12/08 14:40:26;;;;;;;6.10;3.90;;;;;;;;;;5077749;28;20035;-79
2021/12/08 14:43:27;;;;;;;5.88;3.78;;;;;;;;;;5081083;28;20040;-80
2021/12/08 14:46:17;;;;;;;6.15;3.45;;;;;;;;;;5088438;28;20104;-79
2021/12/08 14:49:08;;;;;;;4.25;2.88;;;;;;;;;;5063230;28;20036;-80
2021/12/08 14:51:56;;;;;;;5.70;3.38;;;;;;;;;;5083153;28;20037;-79
2021/12/08 14:54:44;;;;;;;6.03;3.53;;;;;;;;;;5089539;28;20500;-80
2021/12/08 14:57:32;;;;;;;5.90;3.33;;;;;;;;;;5084334;28;20043;-81
2021/12/08 15:00:22;;;;;;;6.22;3.33;;;;;;;;;;5085896;28;20150;-80
2021/12/08 15:03:11;;;;;;;6.03;3.50;;;;;;;;;;5082768;28;20423;-80
2021/12/08 15:05:59;;;;;;;4.55;2.97;;;;;;;;;;5087908;28;20032;-80
2021/12/08 15:08:46;;;;;;;6.15;3.33;;;;;;;;;;5085999;28;20028;-80
2021/12/08 15:11:33;;;;;;;5.65;3.25;;;;;;;;;;5073875;28;20031;-80
2021/12/08 15:14:20;;;;;;;4.72;2.97;;;;;;;;;;5092256;28;20048;-81
2021/12/08 15:17:06;;;;;;;5.07;3.30;;;;;;;;;;5082147;28;20031;-81
2021/12/08 15:19:53;;;;;;;5.30;3.30;;;;;;;;;;5091525;28;20029;-81
2021/12/08 15:22:45;;;;;;;5.55;2.95;;;;;;;;;;5091950;28;20521;-80
2021/12/08 15:25:32;;;;;;;5.18;3.17;;;;;;;;;;5091517;28;20034;-81
2021/12/08 15:28:23;;;;;;;5.75;3.50;;;;;;;;;;5067589;28;20055;-80
2021/12/08 15:31:11;;;;;;;5.35;3.30;;;;;;;;;;5090593;28;20503;-81
2021/12/08 15:33:58;;;;;;;5.85;3.10;;;;;;;;;;5077679;28;20063;-81
2021/12/08 15:36:53;;;;;;;4.25;2.95;;;;;;;;;;5086335;28;20533;-81
2021/12/08 15:39:40;;;;;;;4.97;3.08;;;;;;;;;;5087575;28;20028;-81
2021/12/08 15:42:31;;;;;;;6.07;3.33;;;;;;;;;;5093567;28;20069;-79
2021/12/08 15:45:20;;;;;;;4.22;2.95;;;;;;;;;;5089762;28;20033;-80
2021/12/08 15:48:16;;;;;;;7.03;3.53;;;;;;;;;;5077308;28;20040;-80
2021/12/08 15:51:07;;;;;;;5.68;3.42;;;;;;;;;;5071716;28;20032;-80
2021/12/08 15:53:58;;;;;;;5.17;3.23;;;;;;;;;;5084592;28;20032;-80
2021/12/08 15:56:45;;;;;;;5.88;3.47;;;;;;;;;;5089845;28;20079;-79
2021/12/08 15:59:35;;;;;;;5.53;3.38;;;;;;;;;;5091397;28;20028;-80
2021/12/08 16:02:23;;;;;;;5.30;3.10;;;;;;;;;;5077428;28;20070;-79
2021/12/08 16:05:13;;;;;;;5.22;2.85;;;;;;;;;;5092711;28;20032;-79
2021/12/08 16:08:00;;;;;;;4.75;3.20;;;;;;;;;;5077114;28;20044;-79
2021/12/08 16:10:47;;;;;;;5.90;3.58;;;;;;;;;;5086730;28;20031;-80
2021/12/08 16:13:34;;;;;;;6.25;3.50;;;;;;;;;;5069402;28;20028;-79
2021/12/08 16:16:30;;;;;;;5.53;3.17;;;;;;;;;;5091153;28;20485;-80
2021/12/08 16:19:18;;;;;;;7.05;3.88;;;;;;;;;;5090157;28;20035;-81
2021/12/08 16:22:05;;;;;;;6.20;3.47;;;;;;;;;;5082479;28;20039;-80
2021/12/08 16:24:53;;;;;;;5.57;3.40;;;;;;;;;;5082786;28;20040;-82
2021/12/08 16:27:40;;;;;;;4.68;3.38;;;;;;;;;;5062121;28;20036;-79
2021/12/08 16:30:27;;;;;;;6.20;3.30;;;;;;;;;;5090171;28;20032;-79
2021/12/08 16:33:14;;;;;;;4.80;3.08;;;;;;;;;;5089033;28;20056;-80
2021/12/08 16:36:01;;;;;;;4.85;3.08;;;;;;;;;;5086376;28;20395;-79
2021/12/08 16:38:48;;;;;;;5.40;3.33;;;;;;;;;;5082588;28;20028;-80
2021/12/08 16:44:40;;;;;;;8.10;3.67;;;;;;;;;;5084680;28;20036;-80
2021/12/08 16:47:26;;;;;;;6.93;4.35;;;;;;;;;;5084217;28;20412;-80
2021/12/08 16:50:15;;;;;;;5.18;3.08;;;;;;;;;;5084374;28;20032;-79
2021/12/08 16:53:03;;;;;;;5.93;3.58;;;;;;;;;;5084588;28;20035;-79
2021/12/08 16:55:49;;;;;;;6.38;3.22;;;;;;;;;;5083629;28;20067;-79
2021/12/08 16:58:36;;;;;;;7.07;3.75;;;;;;;;;;5087149;28;20058;-79
2021/12/08 17:01:26;;;;;;;6.90;3.53;;;;;;;;;;5086866;28;20028;-79
2021/12/08 17:04:13;;;;;;;5.93;3.65;;;;;;;;;;5072283;28;20031;-79
2021/12/08 17:06:59;;;;;;;7.50;3.78;;;;;;;;;;5074546;28;20396;-79
2021/12/08 17:09:46;;;;;;;7.80;3.53;;;;;;;;;;5085675;28;20042;-80
2021/12/08 17:12:33;;;;;;;4.95;3.33;;;;;;;;;;5088244;28;20387;-79
2021/12/08 17:15:20;;;;;;;5.93;3.72;;;;;;;;;;5071951;28;20039;-80
2021/12/08 17:18:07;;;;;;;5.95;3.75;;;;;;;;;;5085422;28;20046;-80
2021/12/08 17:20:54;;;;;;;5.65;3.55;;;;;;;;;;5084533;28;20036;-80
2021/12/08 17:23:41;;;;;;;7.30;3.92;;;;;;;;;;5071944;28;20407;-80
2021/12/08 17:26:28;;;;;;;6.40;3.58;;;;;;;;;;5090131;28;20032;-80
2021/12/08 17:29:15;;;;;;;6.95;3.67;;;;;;;;;;5071007;28;20047;-78
2021/12/08 17:32:03;;;;;;;6.93;4.18;;;;;;;;;;5087996;28;20043;-80
2021/12/08 17:34:54;;;;;;;5.13;3.28;;;;;;;;;;5086727;28;20032;-79
2021/12/08 17:37:41;;;;;;;6.15;3.63;;;;;;;;;;5087841;28;20038;-80
2021/12/08 17:40:28;;;;;;;8.65;4.57;;;;;;;;;;5089806;28;20063;-81